sensor_id;sensor_type;location;lat;lon;timestamp;P1;durP1;ratioP1;P2;durP2;ratioP2
5499;SDS011;2772;42.700;23.304;2023-05-16T00:01:35;25.23;;;15.80;;
5499;SDS011;2772;42.700;23.304;2023-05-16T00:04:02;22.93;;;16.37;;
5499;SDS011;2772;42.700;23.304;2023-05-16T00:06:29;18.80;;;16.33;;
5499;SDS011;2772;42.700;23.304;2023-05-16T00:08:57;24.90;;;16.97;;
5499;SDS011;2772;42.700;23.304;2023-05-16T00:11:26;22.43;;;17.07;;
5499;SDS011;2772;42.700;23.304;2023-05-16T00:13:53;21.37;;;16.03;;
5499;SDS011;2772;42.700;23.304;2023-05-16T00:16:20;22.30;;;16.93;;
5499;SDS011;2772;42.700;23.304;2023-05-16T00:18:49;27.63;;;17.03;;
5499;SDS011;2772;42.700;23.304;2023-05-16T00:21:17;22.93;;;17.40;;
5499;SDS011;2772;42.700;23.304;2023-05-16T00:23:44;26.20;;;17.83;;
5499;SDS011;2772;42.700;23.304;2023-05-16T00:26:10;29.03;;;18.47;;
5499;SDS011;2772;42.700;23.304;2023-05-16T00:28:38;23.40;;;17.37;;
5499;SDS011;2772;42.700;23.304;2023-05-16T00:31:05;25.10;;;17.43;;
5499;SDS011;2772;42.700;23.304;2023-05-16T00:33:33;23.80;;;17.53;;
5499;SDS011;2772;42.700;23.304;2023-05-16T00:36:00;22.70;;;17.73;;
5499;SDS011;2772;42.700;23.304;2023-05-16T00:38:27;25.27;;;17.30;;
5499;SDS011;2772;42.700;23.304;2023-05-16T00:40:53;20.80;;;17.07;;
5499;SDS011;2772;42.700;23.304;2023-05-16T00:43:20;26.70;;;18.20;;
5499;SDS011;2772;42.700;23.304;2023-05-16T00:45:48;26.97;;;19.07;;
5499;SDS011;2772;42.700;23.304;2023-05-16T00:48:15;25.53;;;17.90;;
5499;SDS011;2772;42.700;23.304;2023-05-16T00:50:42;25.10;;;18.10;;
5499;SDS011;2772;42.700;23.304;2023-05-16T00:53:09;24.30;;;16.67;;
5499;SDS011;2772;42.700;23.304;2023-05-16T00:55:36;20.30;;;16.27;;
5499;SDS011;2772;42.700;23.304;2023-05-16T00:58:04;22.83;;;17.97;;
5499;SDS011;2772;42.700;23.304;2023-05-16T01:00:31;35.00;;;18.40;;
5499;SDS011;2772;42.700;23.304;2023-05-16T01:02:59;25.50;;;17.60;;
5499;SDS011;2772;42.700;23.304;2023-05-16T01:05:26;23.00;;;17.60;;
5499;SDS011;2772;42.700;23.304;2023-05-16T01:07:54;26.40;;;17.53;;
5499;SDS011;2772;42.700;23.304;2023-05-16T01:10:20;23.57;;;18.07;;
5499;SDS011;2772;42.700;23.304;2023-05-16T01:12:50;22.20;;;18.30;;
5499;SDS011;2772;42.700;23.304;2023-05-16T01:15:27;22.40;;;17.73;;
5499;SDS011;2772;42.700;23.304;2023-05-16T01:17:56;23.03;;;16.50;;
5499;SDS011;2772;42.700;23.304;2023-05-16T01:20:32;22.37;;;17.00;;
5499;SDS011;2772;42.700;23.304;2023-05-16T01:23:15;21.03;;;16.70;;
5499;SDS011;2772;42.700;23.304;2023-05-16T01:25:55;24.97;;;17.03;;
5499;SDS011;2772;42.700;23.304;2023-05-16T01:28:24;26.37;;;17.20;;
5499;SDS011;2772;42.700;23.304;2023-05-16T01:30:52;22.60;;;17.10;;
5499;SDS011;2772;42.700;23.304;2023-05-16T01:33:19;24.13;;;17.97;;
5499;SDS011;2772;42.700;23.304;2023-05-16T01:35:48;22.37;;;18.10;;
5499;SDS011;2772;42.700;23.304;2023-05-16T01:38:23;25.07;;;17.83;;
5499;SDS011;2772;42.700;23.304;2023-05-16T01:40:52;26.60;;;17.67;;
5499;SDS011;2772;42.700;23.304;2023-05-16T01:43:28;28.47;;;18.20;;
5499;SDS011;2772;42.700;23.304;2023-05-16T01:46:02;24.60;;;18.70;;
5499;SDS011;2772;42.700;23.304;2023-05-16T01:48:36;25.67;;;17.77;;
5499;SDS011;2772;42.700;23.304;2023-05-16T01:51:08;32.00;;;17.50;;
5499;SDS011;2772;42.700;23.304;2023-05-16T01:53:38;31.13;;;17.80;;
5499;SDS011;2772;42.700;23.304;2023-05-16T01:56:07;21.67;;;16.43;;
5499;SDS011;2772;42.700;23.304;2023-05-16T01:58:37;20.73;;;15.97;;
5499;SDS011;2772;42.700;23.304;2023-05-16T02:01:04;22.90;;;15.57;;
5499;SDS011;2772;42.700;23.304;2023-05-16T02:03:31;21.20;;;15.53;;
5499;SDS011;2772;42.700;23.304;2023-05-16T02:05:59;21.20;;;16.20;;
5499;SDS011;2772;42.700;23.304;2023-05-16T02:08:26;17.47;;;13.50;;
5499;SDS011;2772;42.700;23.304;2023-05-16T02:10:54;23.10;;;14.10;;
5499;SDS011;2772;42.700;23.304;2023-05-16T02:13:20;22.37;;;14.53;;
5499;SDS011;2772;42.700;23.304;2023-05-16T02:15:48;24.30;;;14.57;;
5499;SDS011;2772;42.700;23.304;2023-05-16T02:18:15;19.10;;;15.07;;
5499;SDS011;2772;42.700;23.304;2023-05-16T02:20:42;19.43;;;14.00;;
5499;SDS011;2772;42.700;23.304;2023-05-16T02:23:09;21.50;;;14.50;;
5499;SDS011;2772;42.700;23.304;2023-05-16T02:25:36;21.23;;;14.90;;
5499;SDS011;2772;42.700;23.304;2023-05-16T02:28:03;20.70;;;14.97;;
5499;SDS011;2772;42.700;23.304;2023-05-16T02:30:30;36.27;;;15.40;;
5499;SDS011;2772;42.700;23.304;2023-05-16T02:32:59;22.50;;;15.03;;
5499;SDS011;2772;42.700;23.304;2023-05-16T02:35:25;21.30;;;15.17;;
5499;SDS011;2772;42.700;23.304;2023-05-16T02:37:52;29.73;;;15.53;;
5499;SDS011;2772;42.700;23.304;2023-05-16T02:40:19;23.20;;;13.97;;
5499;SDS011;2772;42.700;23.304;2023-05-16T02:42:46;26.80;;;13.70;;
5499;SDS011;2772;42.700;23.304;2023-05-16T02:45:12;19.87;;;12.67;;
5499;SDS011;2772;42.700;23.304;2023-05-16T02:47:39;16.20;;;14.10;;
5499;SDS011;2772;42.700;23.304;2023-05-16T02:50:08;17.30;;;13.90;;
5499;SDS011;2772;42.700;23.304;2023-05-16T02:52:35;24.77;;;14.30;;
5499;SDS011;2772;42.700;23.304;2023-05-16T02:55:01;23.90;;;13.33;;
5499;SDS011;2772;42.700;23.304;2023-05-16T02:57:30;17.93;;;12.83;;
5499;SDS011;2772;42.700;23.304;2023-05-16T02:59:56;18.23;;;12.97;;
5499;SDS011;2772;42.700;23.304;2023-05-16T03:02:23;23.47;;;13.90;;
5499;SDS011;2772;42.700;23.304;2023-05-16T03:04:50;21.70;;;14.20;;
5499;SDS011;2772;42.700;23.304;2023-05-16T03:07:18;15.30;;;13.40;;
5499;SDS011;2772;42.700;23.304;2023-05-16T03:09:45;21.13;;;13.63;;
5499;SDS011;2772;42.700;23.304;2023-05-16T03:12:11;17.57;;;13.17;;
5499;SDS011;2772;42.700;23.304;2023-05-16T03:14:38;19.80;;;12.90;;
5499;SDS011;2772;42.700;23.304;2023-05-16T03:17:05;19.83;;;13.00;;
5499;SDS011;2772;42.700;23.304;2023-05-16T03:19:31;24.13;;;13.07;;
5499;SDS011;2772;42.700;23.304;2023-05-16T03:21:58;19.03;;;13.60;;
5499;SDS011;2772;42.700;23.304;2023-05-16T03:24:26;21.90;;;13.63;;
5499;SDS011;2772;42.700;23.304;2023-05-16T03:26:53;22.10;;;13.53;;
5499;SDS011;2772;42.700;23.304;2023-05-16T03:29:20;19.30;;;13.87;;
5499;SDS011;2772;42.700;23.304;2023-05-16T03:31:47;19.30;;;12.80;;
5499;SDS011;2772;42.700;23.304;2023-05-16T03:34:13;19.70;;;14.50;;
5499;SDS011;2772;42.700;23.304;2023-05-16T03:36:40;23.10;;;13.67;;
5499;SDS011;2772;42.700;23.304;2023-05-16T03:39:07;20.73;;;13.50;;
5499;SDS011;2772;42.700;23.304;2023-05-16T03:41:35;19.83;;;15.23;;
5499;SDS011;2772;42.700;23.304;2023-05-16T03:44:02;22.20;;;15.40;;
5499;SDS011;2772;42.700;23.304;2023-05-16T03:46:29;23.00;;;15.50;;
5499;SDS011;2772;42.700;23.304;2023-05-16T03:48:55;20.43;;;13.90;;
5499;SDS011;2772;42.700;23.304;2023-05-16T03:51:22;21.80;;;15.47;;
5499;SDS011;2772;42.700;23.304;2023-05-16T03:53:49;16.30;;;14.03;;
5499;SDS011;2772;42.700;23.304;2023-05-16T03:56:15;18.40;;;13.70;;
5499;SDS011;2772;42.700;23.304;2023-05-16T03:58:43;19.60;;;13.90;;
5499;SDS011;2772;42.700;23.304;2023-05-16T04:01:10;21.83;;;14.30;;
5499;SDS011;2772;42.700;23.304;2023-05-16T04:03:37;20.27;;;12.83;;
5499;SDS011;2772;42.700;23.304;2023-05-16T04:06:06;25.80;;;13.63;;
5499;SDS011;2772;42.700;23.304;2023-05-16T04:08:33;21.00;;;14.23;;
5499;SDS011;2772;42.700;23.304;2023-05-16T04:10:59;25.30;;;14.40;;
5499;SDS011;2772;42.700;23.304;2023-05-16T04:13:26;22.80;;;14.80;;
5499;SDS011;2772;42.700;23.304;2023-05-16T04:15:54;17.90;;;15.37;;
5499;SDS011;2772;42.700;23.304;2023-05-16T04:18:21;19.17;;;15.00;;
5499;SDS011;2772;42.700;23.304;2023-05-16T04:20:47;26.63;;;14.63;;
5499;SDS011;2772;42.700;23.304;2023-05-16T04:23:14;23.50;;;14.33;;
5499;SDS011;2772;42.700;23.304;2023-05-16T04:25:41;24.23;;;14.80;;
5499;SDS011;2772;42.700;23.304;2023-05-16T04:28:07;24.23;;;14.90;;
5499;SDS011;2772;42.700;23.304;2023-05-16T04:30:34;42.03;;;16.00;;
5499;SDS011;2772;42.700;23.304;2023-05-16T04:33:03;27.33;;;14.87;;
5499;SDS011;2772;42.700;23.304;2023-05-16T04:35:30;32.20;;;14.50;;
5499;SDS011;2772;42.700;23.304;2023-05-16T04:37:57;29.83;;;16.77;;
5499;SDS011;2772;42.700;23.304;2023-05-16T04:40:24;20.53;;;14.53;;
5499;SDS011;2772;42.700;23.304;2023-05-16T04:42:51;24.20;;;14.87;;
5499;SDS011;2772;42.700;23.304;2023-05-16T04:45:19;27.63;;;15.20;;
5499;SDS011;2772;42.700;23.304;2023-05-16T04:47:45;30.43;;;15.87;;
5499;SDS011;2772;42.700;23.304;2023-05-16T04:50:14;38.43;;;15.40;;
5499;SDS011;2772;42.700;23.304;2023-05-16T04:52:42;30.67;;;16.20;;
5499;SDS011;2772;42.700;23.304;2023-05-16T04:55:09;21.07;;;15.10;;
5499;SDS011;2772;42.700;23.304;2023-05-16T04:57:36;23.00;;;15.50;;
5499;SDS011;2772;42.700;23.304;2023-05-16T05:00:03;24.23;;;15.80;;
5499;SDS011;2772;42.700;23.304;2023-05-16T05:02:34;26.77;;;15.30;;
5499;SDS011;2772;42.700;23.304;2023-05-16T05:05:01;24.00;;;15.73;;
5499;SDS011;2772;42.700;23.304;2023-05-16T05:07:29;30.80;;;15.67;;
5499;SDS011;2772;42.700;23.304;2023-05-16T05:09:56;28.50;;;14.50;;
5499;SDS011;2772;42.700;23.304;2023-05-16T05:12:22;31.47;;;15.13;;
5499;SDS011;2772;42.700;23.304;2023-05-16T05:14:51;25.90;;;14.80;;
5499;SDS011;2772;42.700;23.304;2023-05-16T05:17:18;40.40;;;16.20;;
5499;SDS011;2772;42.700;23.304;2023-05-16T05:19:45;26.30;;;14.57;;
5499;SDS011;2772;42.700;23.304;2023-05-16T05:22:12;28.00;;;15.67;;
5499;SDS011;2772;42.700;23.304;2023-05-16T05:24:40;37.17;;;17.20;;
5499;SDS011;2772;42.700;23.304;2023-05-16T05:27:07;32.70;;;15.20;;
5499;SDS011;2772;42.700;23.304;2023-05-16T05:29:34;33.30;;;16.20;;
5499;SDS011;2772;42.700;23.304;2023-05-16T05:32:01;29.37;;;16.07;;
5499;SDS011;2772;42.700;23.304;2023-05-16T05:34:27;34.13;;;16.27;;
5499;SDS011;2772;42.700;23.304;2023-05-16T05:36:54;21.90;;;15.57;;
5499;SDS011;2772;42.700;23.304;2023-05-16T05:39:21;28.50;;;17.40;;
5499;SDS011;2772;42.700;23.304;2023-05-16T05:41:49;24.80;;;17.23;;
5499;SDS011;2772;42.700;23.304;2023-05-16T05:44:16;34.27;;;17.07;;
5499;SDS011;2772;42.700;23.304;2023-05-16T05:46:43;26.03;;;16.27;;
5499;SDS011;2772;42.700;23.304;2023-05-16T05:49:10;30.30;;;17.30;;
5499;SDS011;2772;42.700;23.304;2023-05-16T05:51:37;26.80;;;15.10;;
5499;SDS011;2772;42.700;23.304;2023-05-16T05:54:04;26.30;;;15.67;;
5499;SDS011;2772;42.700;23.304;2023-05-16T05:56:31;28.83;;;16.67;;
5499;SDS011;2772;42.700;23.304;2023-05-16T05:58:59;29.57;;;16.20;;
5499;SDS011;2772;42.700;23.304;2023-05-16T06:01:26;33.63;;;16.13;;
5499;SDS011;2772;42.700;23.304;2023-05-16T06:03:53;32.30;;;16.50;;
5499;SDS011;2772;42.700;23.304;2023-05-16T06:06:19;23.10;;;15.20;;
5499;SDS011;2772;42.700;23.304;2023-05-16T06:08:46;30.70;;;16.37;;
5499;SDS011;2772;42.700;23.304;2023-05-16T06:11:13;27.07;;;15.47;;
5499;SDS011;2772;42.700;23.304;2023-05-16T06:13:39;25.33;;;17.67;;
5499;SDS011;2772;42.700;23.304;2023-05-16T06:16:07;26.43;;;14.90;;
5499;SDS011;2772;42.700;23.304;2023-05-16T06:18:34;24.57;;;15.27;;
5499;SDS011;2772;42.700;23.304;2023-05-16T06:21:01;21.90;;;15.30;;
5499;SDS011;2772;42.700;23.304;2023-05-16T06:23:28;27.80;;;15.10;;
5499;SDS011;2772;42.700;23.304;2023-05-16T06:25:54;42.70;;;20.27;;
5499;SDS011;2772;42.700;23.304;2023-05-16T06:28:21;36.20;;;17.03;;
5499;SDS011;2772;42.700;23.304;2023-05-16T06:30:49;28.70;;;15.27;;
5499;SDS011;2772;42.700;23.304;2023-05-16T06:33:17;31.10;;;15.27;;
5499;SDS011;2772;42.700;23.304;2023-05-16T06:35:44;19.43;;;13.00;;
5499;SDS011;2772;42.700;23.304;2023-05-16T06:38:12;30.77;;;15.17;;
5499;SDS011;2772;42.700;23.304;2023-05-16T06:40:38;24.30;;;13.27;;
5499;SDS011;2772;42.700;23.304;2023-05-16T06:43:05;28.97;;;14.30;;
5499;SDS011;2772;42.700;23.304;2023-05-16T06:45:32;33.43;;;14.40;;
5499;SDS011;2772;42.700;23.304;2023-05-16T06:47:59;22.10;;;13.50;;
5499;SDS011;2772;42.700;23.304;2023-05-16T06:50:27;23.90;;;13.83;;
5499;SDS011;2772;42.700;23.304;2023-05-16T06:52:54;19.90;;;13.07;;
5499;SDS011;2772;42.700;23.304;2023-05-16T06:55:20;34.40;;;12.60;;
5499;SDS011;2772;42.700;23.304;2023-05-16T06:57:47;18.53;;;12.23;;
5499;SDS011;2772;42.700;23.304;2023-05-16T07:00:14;16.40;;;12.70;;
5499;SDS011;2772;42.700;23.304;2023-05-16T07:02:41;18.63;;;12.50;;
5499;SDS011;2772;42.700;23.304;2023-05-16T07:05:08;30.83;;;13.37;;
5499;SDS011;2772;42.700;23.304;2023-05-16T07:07:37;23.70;;;13.97;;
5499;SDS011;2772;42.700;23.304;2023-05-16T07:10:04;25.97;;;13.47;;
5499;SDS011;2772;42.700;23.304;2023-05-16T07:12:31;24.83;;;13.70;;
5499;SDS011;2772;42.700;23.304;2023-05-16T07:14:58;17.27;;;12.33;;
5499;SDS011;2772;42.700;23.304;2023-05-16T07:17:25;27.97;;;11.87;;
5499;SDS011;2772;42.700;23.304;2023-05-16T07:19:51;27.33;;;13.80;;
5499;SDS011;2772;42.700;23.304;2023-05-16T07:22:18;19.23;;;13.00;;
5499;SDS011;2772;42.700;23.304;2023-05-16T07:24:46;20.90;;;11.90;;
5499;SDS011;2772;42.700;23.304;2023-05-16T07:27:13;26.90;;;13.00;;
5499;SDS011;2772;42.700;23.304;2023-05-16T07:29:40;19.87;;;12.07;;
5499;SDS011;2772;42.700;23.304;2023-05-16T07:32:06;23.33;;;14.47;;
5499;SDS011;2772;42.700;23.304;2023-05-16T07:34:33;19.03;;;13.70;;
5499;SDS011;2772;42.700;23.304;2023-05-16T07:37:00;18.33;;;12.50;;
5499;SDS011;2772;42.700;23.304;2023-05-16T07:39:27;20.83;;;15.10;;
5499;SDS011;2772;42.700;23.304;2023-05-16T07:41:55;22.30;;;11.53;;
5499;SDS011;2772;42.700;23.304;2023-05-16T07:44:22;14.17;;;11.80;;
5499;SDS011;2772;42.700;23.304;2023-05-16T07:46:49;19.40;;;11.33;;
5499;SDS011;2772;42.700;23.304;2023-05-16T07:49:15;22.50;;;12.00;;
5499;SDS011;2772;42.700;23.304;2023-05-16T07:51:42;19.90;;;12.57;;
5499;SDS011;2772;42.700;23.304;2023-05-16T07:54:09;18.00;;;12.17;;
5499;SDS011;2772;42.700;23.304;2023-05-16T07:56:36;23.30;;;11.43;;
5499;SDS011;2772;42.700;23.304;2023-05-16T07:59:04;16.53;;;10.80;;
5499;SDS011;2772;42.700;23.304;2023-05-16T08:01:30;21.07;;;12.70;;
5499;SDS011;2772;42.700;23.304;2023-05-16T08:03:57;17.10;;;12.00;;
5499;SDS011;2772;42.700;23.304;2023-05-16T08:06:24;24.30;;;13.83;;
5499;SDS011;2772;42.700;23.304;2023-05-16T08:08:51;20.87;;;11.93;;
5499;SDS011;2772;42.700;23.304;2023-05-16T08:11:18;17.23;;;11.70;;
5499;SDS011;2772;42.700;23.304;2023-05-16T08:13:46;14.87;;;11.80;;
5499;SDS011;2772;42.700;23.304;2023-05-16T08:16:15;15.07;;;10.80;;
5499;SDS011;2772;42.700;23.304;2023-05-16T08:18:42;15.87;;;11.43;;
5499;SDS011;2772;42.700;23.304;2023-05-16T08:21:08;21.10;;;13.17;;
5499;SDS011;2772;42.700;23.304;2023-05-16T08:23:35;18.67;;;12.20;;
5499;SDS011;2772;42.700;23.304;2023-05-16T08:26:02;28.43;;;12.10;;
5499;SDS011;2772;42.700;23.304;2023-05-16T08:28:29;20.20;;;11.97;;
5499;SDS011;2772;42.700;23.304;2023-05-16T08:30:56;19.90;;;11.60;;
5499;SDS011;2772;42.700;23.304;2023-05-16T08:33:24;22.50;;;12.20;;
5499;SDS011;2772;42.700;23.304;2023-05-16T08:35:51;22.50;;;13.00;;
5499;SDS011;2772;42.700;23.304;2023-05-16T08:38:18;16.33;;;11.00;;
5499;SDS011;2772;42.700;23.304;2023-05-16T08:40:44;36.23;;;12.63;;
5499;SDS011;2772;42.700;23.304;2023-05-16T08:43:12;16.40;;;11.10;;
5499;SDS011;2772;42.700;23.304;2023-05-16T08:45:39;28.20;;;14.63;;
5499;SDS011;2772;42.700;23.304;2023-05-16T08:48:06;20.97;;;12.17;;
5499;SDS011;2772;42.700;23.304;2023-05-16T08:50:37;41.93;;;20.90;;
5499;SDS011;2772;42.700;23.304;2023-05-16T08:53:04;38.87;;;23.50;;
5499;SDS011;2772;42.700;23.304;2023-05-16T08:55:33;34.70;;;14.53;;
5499;SDS011;2772;42.700;23.304;2023-05-16T08:58:01;21.73;;;11.47;;
5499;SDS011;2772;42.700;23.304;2023-05-16T09:00:28;18.80;;;10.40;;
5499;SDS011;2772;42.700;23.304;2023-05-16T09:02:55;25.70;;;10.10;;
5499;SDS011;2772;42.700;23.304;2023-05-16T09:05:23;12.67;;;9.73;;
5499;SDS011;2772;42.700;23.304;2023-05-16T09:07:52;18.67;;;10.80;;
5499;SDS011;2772;42.700;23.304;2023-05-16T09:10:18;21.40;;;11.27;;
5499;SDS011;2772;42.700;23.304;2023-05-16T09:12:46;18.30;;;9.83;;
5499;SDS011;2772;42.700;23.304;2023-05-16T09:15:12;25.40;;;11.20;;
5499;SDS011;2772;42.700;23.304;2023-05-16T09:17:42;23.10;;;11.37;;
5499;SDS011;2772;42.700;23.304;2023-05-16T09:20:10;18.80;;;12.40;;
5499;SDS011;2772;42.700;23.304;2023-05-16T09:22:39;22.47;;;13.20;;
5499;SDS011;2772;42.700;23.304;2023-05-16T09:25:08;20.60;;;11.90;;
5499;SDS011;2772;42.700;23.304;2023-05-16T09:27:41;20.00;;;12.90;;
5499;SDS011;2772;42.700;23.304;2023-05-16T09:30:09;21.60;;;12.17;;
5499;SDS011;2772;42.700;23.304;2023-05-16T09:32:41;15.33;;;11.20;;
5499;SDS011;2772;42.700;23.304;2023-05-16T09:35:10;21.13;;;12.50;;
5499;SDS011;2772;42.700;23.304;2023-05-16T09:37:42;19.27;;;10.20;;
5499;SDS011;2772;42.700;23.304;2023-05-16T09:40:12;18.70;;;11.00;;
5499;SDS011;2772;42.700;23.304;2023-05-16T09:42:40;16.20;;;9.70;;
5499;SDS011;2772;42.700;23.304;2023-05-16T09:45:08;20.43;;;10.10;;
5499;SDS011;2772;42.700;23.304;2023-05-16T09:47:50;17.70;;;10.10;;
5499;SDS011;2772;42.700;23.304;2023-05-16T09:50:17;17.87;;;10.50;;
5499;SDS011;2772;42.700;23.304;2023-05-16T09:52:44;12.67;;;9.90;;
5499;SDS011;2772;42.700;23.304;2023-05-16T09:55:12;16.67;;;9.80;;
5499;SDS011;2772;42.700;23.304;2023-05-16T09:57:38;23.17;;;10.50;;
5499;SDS011;2772;42.700;23.304;2023-05-16T10:00:06;14.60;;;9.63;;
5499;SDS011;2772;42.700;23.304;2023-05-16T10:02:36;19.73;;;10.07;;
5499;SDS011;2772;42.700;23.304;2023-05-16T10:05:04;21.17;;;10.30;;
5499;SDS011;2772;42.700;23.304;2023-05-16T10:07:32;21.87;;;9.93;;
5499;SDS011;2772;42.700;23.304;2023-05-16T10:10:00;20.63;;;10.10;;
5499;SDS011;2772;42.700;23.304;2023-05-16T10:12:33;16.23;;;10.47;;
5499;SDS011;2772;42.700;23.304;2023-05-16T10:15:02;15.67;;;10.40;;
5499;SDS011;2772;42.700;23.304;2023-05-16T10:17:32;12.80;;;9.60;;
5499;SDS011;2772;42.700;23.304;2023-05-16T10:20:00;20.73;;;9.40;;
5499;SDS011;2772;42.700;23.304;2023-05-16T10:22:32;16.80;;;10.23;;
5499;SDS011;2772;42.700;23.304;2023-05-16T10:25:03;15.33;;;9.50;;
5499;SDS011;2772;42.700;23.304;2023-05-16T10:27:36;16.60;;;9.53;;
5499;SDS011;2772;42.700;23.304;2023-05-16T10:30:04;15.20;;;10.37;;
5499;SDS011;2772;42.700;23.304;2023-05-16T10:32:33;30.40;;;11.57;;
5499;SDS011;2772;42.700;23.304;2023-05-16T10:35:01;17.90;;;11.67;;
5499;SDS011;2772;42.700;23.304;2023-05-16T10:37:29;17.87;;;11.00;;
5499;SDS011;2772;42.700;23.304;2023-05-16T10:39:58;20.77;;;11.43;;
5499;SDS011;2772;42.700;23.304;2023-05-16T10:42:26;15.87;;;10.07;;
5499;SDS011;2772;42.700;23.304;2023-05-16T10:44:54;15.53;;;10.33;;
5499;SDS011;2772;42.700;23.304;2023-05-16T10:47:34;21.73;;;11.30;;
5499;SDS011;2772;42.700;23.304;2023-05-16T10:50:01;24.67;;;13.03;;
5499;SDS011;2772;42.700;23.304;2023-05-16T10:52:31;18.47;;;11.30;;
5499;SDS011;2772;42.700;23.304;2023-05-16T10:54:59;21.70;;;12.23;;
5499;SDS011;2772;42.700;23.304;2023-05-16T10:57:28;25.63;;;11.40;;
5499;SDS011;2772;42.700;23.304;2023-05-16T10:59:59;15.37;;;10.07;;
5499;SDS011;2772;42.700;23.304;2023-05-16T11:02:28;20.37;;;11.73;;
5499;SDS011;2772;42.700;23.304;2023-05-16T11:04:58;18.53;;;10.60;;
5499;SDS011;2772;42.700;23.304;2023-05-16T11:07:29;16.20;;;10.00;;
5499;SDS011;2772;42.700;23.304;2023-05-16T11:10:01;19.97;;;11.23;;
5499;SDS011;2772;42.700;23.304;2023-05-16T11:12:36;24.13;;;11.00;;
5499;SDS011;2772;42.700;23.304;2023-05-16T11:15:19;18.07;;;11.37;;
5499;SDS011;2772;42.700;23.304;2023-05-16T11:17:48;27.73;;;12.33;;
5499;SDS011;2772;42.700;23.304;2023-05-16T11:20:24;19.80;;;11.00;;
5499;SDS011;2772;42.700;23.304;2023-05-16T11:22:51;20.73;;;12.10;;
5499;SDS011;2772;42.700;23.304;2023-05-16T11:25:50;36.23;;;19.97;;
5499;SDS011;2772;42.700;23.304;2023-05-16T11:28:19;24.03;;;14.77;;
5499;SDS011;2772;42.700;23.304;2023-05-16T11:30:48;20.93;;;13.63;;
5499;SDS011;2772;42.700;23.304;2023-05-16T11:33:16;23.13;;;12.77;;
5499;SDS011;2772;42.700;23.304;2023-05-16T11:35:58;17.37;;;11.53;;
5499;SDS011;2772;42.700;23.304;2023-05-16T11:38:28;16.80;;;11.77;;
5499;SDS011;2772;42.700;23.304;2023-05-16T11:41:00;20.43;;;11.90;;
5499;SDS011;2772;42.700;23.304;2023-05-16T11:43:28;21.50;;;12.30;;
5499;SDS011;2772;42.700;23.304;2023-05-16T11:45:56;18.93;;;11.70;;
5499;SDS011;2772;42.700;23.304;2023-05-16T11:48:23;17.43;;;13.03;;
5499;SDS011;2772;42.700;23.304;2023-05-16T11:50:51;21.27;;;12.20;;
5499;SDS011;2772;42.700;23.304;2023-05-16T11:53:19;20.00;;;12.37;;
5499;SDS011;2772;42.700;23.304;2023-05-16T11:55:46;25.97;;;14.00;;
5499;SDS011;2772;42.700;23.304;2023-05-16T11:58:16;22.00;;;12.73;;
5499;SDS011;2772;42.700;23.304;2023-05-16T12:00:46;23.80;;;12.27;;
5499;SDS011;2772;42.700;23.304;2023-05-16T12:03:16;26.37;;;13.30;;
5499;SDS011;2772;42.700;23.304;2023-05-16T12:05:48;32.73;;;14.60;;
5499;SDS011;2772;42.700;23.304;2023-05-16T12:08:17;29.57;;;12.97;;
5499;SDS011;2772;42.700;23.304;2023-05-16T12:10:44;17.30;;;11.20;;
5499;SDS011;2772;42.700;23.304;2023-05-16T12:13:11;19.10;;;10.60;;
5499;SDS011;2772;42.700;23.304;2023-05-16T12:15:38;19.53;;;11.07;;
5499;SDS011;2772;42.700;23.304;2023-05-16T12:18:05;15.80;;;10.37;;
5499;SDS011;2772;42.700;23.304;2023-05-16T12:20:33;20.47;;;10.40;;
5499;SDS011;2772;42.700;23.304;2023-05-16T12:23:00;20.57;;;11.53;;
5499;SDS011;2772;42.700;23.304;2023-05-16T12:25:28;27.07;;;11.00;;
5499;SDS011;2772;42.700;23.304;2023-05-16T12:27:57;29.73;;;12.00;;
5499;SDS011;2772;42.700;23.304;2023-05-16T12:30:25;21.70;;;12.13;;
5499;SDS011;2772;42.700;23.304;2023-05-16T12:32:56;18.83;;;12.23;;
5499;SDS011;2772;42.700;23.304;2023-05-16T12:35:24;19.90;;;11.80;;
5499;SDS011;2772;42.700;23.304;2023-05-16T12:37:52;15.30;;;11.20;;
5499;SDS011;2772;42.700;23.304;2023-05-16T12:40:20;17.13;;;10.33;;
5499;SDS011;2772;42.700;23.304;2023-05-16T12:42:48;20.00;;;11.70;;
5499;SDS011;2772;42.700;23.304;2023-05-16T12:45:16;29.03;;;13.77;;
5499;SDS011;2772;42.700;23.304;2023-05-16T12:47:43;18.57;;;12.07;;
5499;SDS011;2772;42.700;23.304;2023-05-16T12:50:11;16.90;;;11.13;;
5499;SDS011;2772;42.700;23.304;2023-05-16T12:52:48;21.83;;;12.43;;
5499;SDS011;2772;42.700;23.304;2023-05-16T12:55:17;20.33;;;12.60;;
5499;SDS011;2772;42.700;23.304;2023-05-16T12:57:46;18.37;;;11.70;;
5499;SDS011;2772;42.700;23.304;2023-05-16T13:00:14;22.87;;;11.73;;
5499;SDS011;2772;42.700;23.304;2023-05-16T13:02:43;22.93;;;10.70;;
5499;SDS011;2772;42.700;23.304;2023-05-16T13:05:10;31.33;;;11.40;;
5499;SDS011;2772;42.700;23.304;2023-05-16T13:07:37;25.30;;;11.00;;
5499;SDS011;2772;42.700;23.304;2023-05-16T13:10:05;21.40;;;12.23;;
5499;SDS011;2772;42.700;23.304;2023-05-16T13:12:36;23.63;;;13.23;;
5499;SDS011;2772;42.700;23.304;2023-05-16T13:15:03;22.13;;;12.20;;
5499;SDS011;2772;42.700;23.304;2023-05-16T13:17:31;20.47;;;11.73;;
5499;SDS011;2772;42.700;23.304;2023-05-16T13:19:58;21.13;;;11.93;;
5499;SDS011;2772;42.700;23.304;2023-05-16T13:22:25;24.80;;;13.60;;
5499;SDS011;2772;42.700;23.304;2023-05-16T13:24:52;28.80;;;13.30;;
5499;SDS011;2772;42.700;23.304;2023-05-16T13:27:19;18.57;;;12.87;;
5499;SDS011;2772;42.700;23.304;2023-05-16T13:29:47;33.17;;;13.87;;
5499;SDS011;2772;42.700;23.304;2023-05-16T13:32:14;19.33;;;12.40;;
5499;SDS011;2772;42.700;23.304;2023-05-16T13:34:41;23.80;;;11.63;;
5499;SDS011;2772;42.700;23.304;2023-05-16T13:37:09;20.40;;;13.07;;
5499;SDS011;2772;42.700;23.304;2023-05-16T13:39:36;22.10;;;11.60;;
5499;SDS011;2772;42.700;23.304;2023-05-16T13:42:02;27.47;;;12.10;;
5499;SDS011;2772;42.700;23.304;2023-05-16T13:44:30;35.37;;;12.10;;
5499;SDS011;2772;42.700;23.304;2023-05-16T13:46:58;23.13;;;11.97;;
5499;SDS011;2772;42.700;23.304;2023-05-16T13:49:25;22.47;;;11.63;;
5499;SDS011;2772;42.700;23.304;2023-05-16T13:51:52;17.73;;;12.07;;
5499;SDS011;2772;42.700;23.304;2023-05-16T13:54:19;19.07;;;10.90;;
5499;SDS011;2772;42.700;23.304;2023-05-16T13:56:46;18.63;;;11.87;;
5499;SDS011;2772;42.700;23.304;2023-05-16T13:59:13;25.77;;;12.50;;
5499;SDS011;2772;42.700;23.304;2023-05-16T14:01:40;21.00;;;12.33;;
5499;SDS011;2772;42.700;23.304;2023-05-16T14:04:08;26.10;;;13.43;;
5499;SDS011;2772;42.700;23.304;2023-05-16T14:06:36;19.93;;;11.90;;
5499;SDS011;2772;42.700;23.304;2023-05-16T14:09:03;26.63;;;12.20;;
5499;SDS011;2772;42.700;23.304;2023-05-16T14:11:30;33.67;;;12.53;;
5499;SDS011;2772;42.700;23.304;2023-05-16T14:13:57;25.33;;;13.20;;
5499;SDS011;2772;42.700;23.304;2023-05-16T14:16:23;36.73;;;16.10;;
5499;SDS011;2772;42.700;23.304;2023-05-16T14:18:50;25.90;;;14.00;;
5499;SDS011;2772;42.700;23.304;2023-05-16T14:21:18;32.50;;;16.30;;
5499;SDS011;2772;42.700;23.304;2023-05-16T14:23:45;34.03;;;16.70;;
5499;SDS011;2772;42.700;23.304;2023-05-16T14:26:12;24.70;;;15.90;;
5499;SDS011;2772;42.700;23.304;2023-05-16T14:28:40;29.20;;;16.60;;
5499;SDS011;2772;42.700;23.304;2023-05-16T14:31:07;22.47;;;14.10;;
5499;SDS011;2772;42.700;23.304;2023-05-16T14:33:33;26.90;;;14.67;;
5499;SDS011;2772;42.700;23.304;2023-05-16T14:36:00;23.40;;;14.50;;
5499;SDS011;2772;42.700;23.304;2023-05-16T14:38:28;24.83;;;15.30;;
5499;SDS011;2772;42.700;23.304;2023-05-16T14:40:55;33.33;;;18.03;;